Time;durP1;ratioP1;P1;durP2;ratioP2;P2;SDS_P1;SDS_P2;PMS_P1;PMS_P2;Temp;Humidity;BMP_temperature;BMP_pressure;BME280_temperature;BME280_humidity;BME280_pressure;Samples;Min_cycle;Max_cycle;Signal;HPM_P1;HPM_P2
2022/05/02 00:00:08;;;;;;;4.33;3.93;;;18.80;48.50;19.90;101189.00;;;;4989777;28;20187;-47
2022/05/02 00:02:35;;;;;;;4.50;4.10;;;18.80;48.50;19.90;101192.00;;;;4989091;28;20242;-48
2022/05/02 00:05:01;;;;;;;4.50;4.10;;;18.80;48.40;19.90;101184.00;;;;4989456;28;20215;-48
2022/05/02 00:07:27;;;;;;;4.20;3.90;;;18.80;48.40;19.90;101178.00;;;;4989861;28;20789;-48
2022/05/02 00:09:52;;;;;;;4.23;3.70;;;18.80;48.40;19.80;101177.00;;;;4989915;28;20223;-48
2022/05/02 00:12:18;;;;;;;4.47;4.03;;;18.70;48.30;19.80;101188.00;;;;4991392;28;20184;-48
2022/05/02 00:14:44;;;;;;;4.40;4.10;;;18.80;48.30;19.80;101187.00;;;;4996559;28;20668;-49
2022/05/02 00:17:09;;;;;;;4.20;3.80;;;18.80;48.30;19.80;101186.00;;;;4997740;28;20177;-50
2022/05/02 00:19:35;;;;;;;4.53;4.13;;;18.70;48.30;19.80;101183.00;;;;4990901;28;20179;-48
2022/05/02 00:22:01;;;;;;;4.00;3.70;;;18.70;48.30;19.80;101182.00;;;;4989873;28;20213;-48
2022/05/02 00:24:27;;;;;;;4.27;3.87;;;18.70;48.30;19.70;101183.00;;;;4989401;28;20283;-49
2022/05/02 00:26:52;;;;;;;4.43;4.03;;;18.70;48.30;19.70;101182.00;;;;4989260;28;20180;-48
2022/05/02 00:29:18;;;;;;;4.40;4.00;;;18.70;48.30;19.70;101167.00;;;;4989469;28;20199;-48
2022/05/02 00:31:45;;;;;;;4.13;3.73;;;18.60;48.30;19.70;101168.00;;;;4989362;28;20172;-48
2022/05/02 00:34:12;;;;;;;4.00;3.70;;;18.60;48.30;19.70;101175.00;;;;4989056;28;20286;-49
2022/05/02 00:36:38;;;;;;;3.80;3.40;;;18.60;48.30;19.70;101161.00;;;;4988989;28;20542;-48
2022/05/02 00:39:04;;;;;;;4.00;3.70;;;18.60;48.40;19.70;101166.00;;;;4989291;28;20168;-48
2022/05/02 00:41:29;;;;;;;3.67;3.37;;;18.60;48.40;19.70;101155.00;;;;4988914;28;20177;-49
2022/05/02 00:43:55;;;;;;;3.90;3.60;;;18.50;48.30;19.70;101165.00;;;;4988697;28;20204;-48
2022/05/02 00:46:23;;;;;;;4.37;3.97;;;18.60;48.50;19.60;101154.00;;;;4988682;28;20177;-49
2022/05/02 00:48:49;;;;;;;4.30;3.90;;;18.50;48.40;19.60;101160.00;;;;5003538;28;20287;-48
2022/05/02 00:51:15;;;;;;;3.93;3.53;;;18.50;48.50;19.60;101149.00;;;;4988818;28;20363;-48
2022/05/02 00:53:42;;;;;;;3.63;3.33;;;18.50;48.50;19.60;101142.00;;;;4988693;28;20188;-48
2022/05/02 00:56:08;;;;;;;4.23;3.90;;;18.50;48.50;19.60;101145.00;;;;4987260;28;20664;-47
2022/05/02 00:58:35;;;;;;;4.03;3.73;;;18.50;48.50;19.60;101144.00;;;;4987433;28;20199;-49
2022/05/02 01:01:00;;;;;;;3.90;3.60;;;18.50;48.50;19.50;101133.00;;;;4988069;28;20271;-47
2022/05/02 01:03:26;;;;;;;4.10;3.70;;;18.40;48.40;19.50;101137.00;;;;4988441;28;20295;-47
2022/05/02 01:08:36;;;;;;;3.80;3.50;;;18.40;48.40;19.50;101135.00;;;;4987462;28;20207;-47
2022/05/02 01:11:01;;;;;;;3.83;3.53;;;18.40;48.40;19.50;101132.00;;;;4988496;28;20180;-48
2022/05/02 01:13:38;;;;;;;4.23;3.77;;;18.40;48.40;19.50;101126.00;;;;4988064;28;20227;-47
2022/05/02 01:16:19;;;;;;;3.90;3.60;;;18.40;48.40;19.50;101125.00;;;;4988686;28;20282;-48
2022/05/02 01:18:49;;;;;;;3.80;3.50;;;18.40;48.50;19.40;101133.00;;;;4988320;28;20195;-47
2022/05/02 01:21:17;;;;;;;4.00;3.70;;;18.40;48.50;19.40;101132.00;;;;4988499;28;20219;-47
2022/05/02 01:23:56;;;;;;;4.00;3.60;;;18.40;48.60;19.40;101131.00;;;;4987474;28;20753;-48
2022/05/02 01:26:22;;;;;;;3.70;3.40;;;18.40;48.70;19.40;101133.00;;;;4986935;28;20200;-47
2022/05/02 01:28:53;;;;;;;4.17;3.77;;;18.40;48.70;19.40;101126.00;;;;4988218;28;20205;-48
2022/05/02 01:31:19;;;;;;;4.07;3.63;;;18.30;48.70;19.40;101130.00;;;;4988116;28;20157;-47
2022/05/02 01:33:45;;;;;;;3.90;3.50;;;18.30;48.70;19.40;101136.00;;;;4988560;28;20370;-47
2022/05/02 01:36:11;;;;;;;3.80;3.50;;;18.30;48.80;19.40;101123.00;;;;4988086;28;20551;-48
2022/05/02 01:38:37;;;;;;;3.43;3.20;;;18.30;48.80;19.40;101133.00;;;;4988545;28;20186;-48
2022/05/02 01:41:04;;;;;;;3.70;3.40;;;18.30;48.80;19.40;101123.00;;;;4987116;28;20183;-47
2022/05/02 01:43:31;;;;;;;4.03;3.73;;;18.30;48.80;19.40;101123.00;;;;4987668;28;20696;-47
2022/05/02 01:45:58;;;;;;;3.40;3.20;;;18.30;48.80;19.30;101126.00;;;;4987838;28;20250;-48
2022/05/02 01:48:24;;;;;;;4.27;3.47;;;18.30;48.80;19.30;101123.00;;;;4988095;28;20168;-49
2022/05/02 01:50:49;;;;;;;4.00;3.70;;;18.20;48.70;19.30;101117.00;;;;4987758;28;20672;-48
2022/05/02 01:53:15;;;;;;;3.83;3.53;;;18.20;48.80;19.30;101116.00;;;;4987703;28;20204;-48
2022/05/02 01:55:41;;;;;;;3.90;3.60;;;18.30;48.80;19.30;101125.00;;;;4987926;28;20233;-47
2022/05/02 01:58:07;;;;;;;3.67;3.43;;;18.30;48.80;19.30;101115.00;;;;4987762;28;20183;-47
2022/05/02 02:00:32;;;;;;;4.10;3.30;;;18.20;48.70;19.30;101117.00;;;;4987705;28;20172;-48
2022/05/02 02:02:58;;;;;;;3.60;3.30;;;18.20;48.70;19.30;101121.00;;;;4986242;28;20593;-47
2022/05/02 02:08:08;;;;;;;5.30;3.47;;;18.20;48.70;19.20;101125.00;;;;4987651;28;20190;-47
2022/05/02 02:10:34;;;;;;;3.80;3.50;;;18.20;48.70;19.20;101118.00;;;;4987772;28;20199;-47
2022/05/02 02:12:59;;;;;;;3.77;3.47;;;18.20;48.90;19.20;101124.00;;;;4987584;28;20171;-48
2022/05/02 02:15:25;;;;;;;3.87;3.40;;;18.20;48.90;19.20;101121.00;;;;4986545;28;20713;-49
2022/05/02 02:17:51;;;;;;;3.50;3.20;;;18.20;48.90;19.20;101131.00;;;;4987793;28;20672;-46
2022/05/02 02:20:16;;;;;;;3.70;3.40;;;18.20;49.00;19.20;101129.00;;;;4987734;28;20191;-48
2022/05/02 02:22:42;;;;;;;3.80;3.50;;;18.10;49.00;19.20;101124.00;;;;4988007;28;20182;-48
2022/05/02 02:25:08;;;;;;;3.80;3.50;;;18.10;49.00;19.20;101126.00;;;;4987967;28;20202;-49
2022/05/02 02:27:34;;;;;;;3.60;3.30;;;18.10;49.00;19.20;101125.00;;;;4986728;28;20683;-47
2022/05/02 02:29:59;;;;;;;3.50;3.20;;;18.10;49.00;19.20;101121.00;;;;4987379;28;20203;-49
2022/05/02 02:32:25;;;;;;;3.70;3.40;;;18.10;49.10;19.20;101127.00;;;;4986447;28;20262;-47
2022/05/02 02:34:51;;;;;;;3.70;3.40;;;18.10;49.10;19.10;101133.00;;;;4986245;28;20226;-48
2022/05/02 02:37:17;;;;;;;3.40;3.20;;;18.10;49.10;19.10;101114.00;;;;4991267;28;20179;-47
2022/05/02 02:39:43;;;;;;;3.63;3.33;;;18.10;49.10;19.10;101110.00;;;;4991546;28;20208;-47
2022/05/02 02:42:09;;;;;;;3.40;3.20;;;18.00;49.10;19.10;101113.00;;;;5008363;28;20239;-47
2022/05/02 02:44:35;;;;;;;3.50;3.20;;;18.00;49.10;19.10;101107.00;;;;4992603;28;20204;-47
2022/05/02 02:47:01;;;;;;;3.70;3.40;;;18.00;49.20;19.10;101109.00;;;;4992773;28;20185;-48
2022/05/02 02:49:26;;;;;;;3.77;3.47;;;18.00;49.10;19.00;101099.00;;;;4990962;28;20739;-47
2022/05/02 02:51:52;;;;;;;3.80;3.43;;;18.00;49.10;19.00;101100.00;;;;4991199;28;20181;-48
2022/05/02 02:54:18;;;;;;;4.00;3.70;;;18.00;49.10;19.00;101093.00;;;;4989547;28;20226;-48
2022/05/02 02:56:43;;;;;;;3.67;3.37;;;18.00;49.10;19.00;101089.00;;;;4990844;28;20213;-48
2022/05/02 02:59:09;;;;;;;3.50;3.27;;;17.90;49.00;19.00;101092.00;;;;4990575;28;20641;-48
2022/05/02 03:01:35;;;;;;;3.40;3.20;;;17.90;49.00;19.00;101080.00;;;;4990596;28;20200;-47
2022/05/02 03:06:01;;;;;;;3.80;3.50;;;17.90;49.00;19.00;101082.00;;;;4990749;28;20201;-48
2022/05/02 03:06:46;;;;;;;3.77;3.47;;;17.90;49.10;18.90;101089.00;;;;4989520;28;20664;-48
2022/05/02 03:09:12;;;;;;;3.83;3.53;;;17.90;49.10;18.90;101084.00;;;;4993131;28;20194;-48
2022/05/02 03:11:37;;;;;;;3.80;3.50;;;17.90;49.10;18.90;101086.00;;;;4995501;28;20178;-48
2022/05/02 03:14:03;;;;;;;3.60;3.30;;;17.90;49.10;18.90;101079.00;;;;4997802;28;20679;-48
2022/05/02 03:16:29;;;;;;;3.73;3.43;;;17.80;49.10;18.90;101082.00;;;;4992495;28;20169;-47
2022/05/02 03:18:55;;;;;;;3.60;3.30;;;17.80;49.10;18.90;101084.00;;;;4990620;28;20299;-47
2022/05/02 03:21:20;;;;;;;3.97;3.67;;;17.80;49.10;18.90;101078.00;;;;4990584;28;20178;-47
2022/05/02 03:23:46;;;;;;;3.80;3.50;;;17.80;49.10;18.90;101086.00;;;;4990968;28;20230;-47
2022/05/02 03:26:12;;;;;;;3.50;3.20;;;17.80;49.10;18.90;101082.00;;;;4990264;28;20784;-47
2022/05/02 03:28:37;;;;;;;3.80;3.50;;;17.80;49.20;18.90;101076.00;;;;4990384;28;20172;-48
2022/05/02 03:31:03;;;;;;;3.80;3.40;;;17.80;49.40;18.80;101069.00;;;;4990513;28;20199;-48
2022/05/02 03:33:29;;;;;;;3.90;3.50;;;17.80;49.70;18.80;101060.00;;;;4990397;28;20201;-47
2022/05/02 03:35:55;;;;;;;5.53;3.40;;;17.80;49.70;18.80;101086.00;;;;4988804;28;20173;-49
2022/05/02 03:38:21;;;;;;;4.93;3.17;;;17.80;50.20;18.80;101082.00;;;;4990193;28;20164;-48
2022/05/02 03:40:46;;;;;;;3.77;2.87;;;17.80;49.50;18.80;101074.00;;;;4990092;28;20183;-47
2022/05/02 03:43:12;;;;;;;4.87;3.63;;;17.70;49.30;18.80;101070.00;;;;4989855;28;20219;-47
2022/05/02 03:45:38;;;;;;;4.23;3.40;;;17.80;49.40;18.80;101062.00;;;;4989579;28;20175;-48
2022/05/02 03:48:04;;;;;;;4.43;3.50;;;17.70;49.40;18.80;101061.00;;;;4988776;28;20173;-48
2022/05/02 03:50:30;;;;;;;4.43;3.37;;;17.70;49.40;18.80;101070.00;;;;4989788;28;20279;-47
2022/05/02 03:52:55;;;;;;;3.60;3.30;;;17.70;49.40;18.80;101071.00;;;;4988760;28;20699;-47
2022/05/02 03:55:21;;;;;;;3.50;3.20;;;17.70;49.40;18.80;101068.00;;;;4989788;28;20168;-47
2022/05/02 03:57:47;;;;;;;3.50;3.20;;;17.70;49.30;18.80;101068.00;;;;4989571;28;20170;-47
2022/05/02 04:00:13;;;;;;;4.03;3.37;;;17.70;49.30;18.80;101072.00;;;;4989898;28;20233;-47
2022/05/02 04:02:39;;;;;;;3.70;3.40;;;17.70;49.40;18.70;101080.00;;;;4989763;28;20232;-47
2022/05/02 04:05:05;;;;;;;3.80;3.40;;;17.70;49.40;18.70;101074.00;;;;4989780;28;20206;-47
2022/05/02 04:07:31;;;;;;;3.60;3.30;;;17.70;49.30;18.70;101079.00;;;;4989895;28;20176;-48
2022/05/02 04:09:57;;;;;;;3.53;3.23;;;17.60;49.30;18.70;101076.00;;;;4989544;28;20201;-48
2022/05/02 04:12:22;;;;;;;3.73;3.30;;;17.60;49.20;18.70;101082.00;;;;4989856;28;20176;-47
2022/05/02 04:14:48;;;;;;;3.53;3.23;;;17.60;49.70;18.70;101071.00;;;;4989590;28;20200;-47
2022/05/02 04:17:14;;;;;;;5.63;3.50;;;17.60;49.20;18.70;101070.00;;;;4989276;28;20159;-48
2022/05/02 04:19:39;;;;;;;3.53;3.17;;;17.60;49.30;18.70;101072.00;;;;4989538;28;20184;-47
2022/05/02 04:22:05;;;;;;;3.53;3.23;;;17.60;49.30;18.70;101072.00;;;;4989143;28;20183;-47
2022/05/02 04:24:31;;;;;;;4.10;3.20;;;17.60;49.30;18.70;101069.00;;;;5009335;28;20211;-48
2022/05/02 04:26:57;;;;;;;3.77;3.30;;;17.60;49.30;18.70;101071.00;;;;5028386;28;20175;-47
2022/05/02 04:29:24;;;;;;;4.10;3.20;;;17.60;49.30;18.60;101074.00;;;;5028632;28;20546;-47
2022/05/02 04:31:49;;;;;;;3.47;3.17;;;17.60;49.30;18.60;101080.00;;;;5005444;28;20205;-48
2022/05/02 04:34:15;;;;;;;3.33;3.10;;;17.60;49.30;18.60;101070.00;;;;4992676;28;20209;-48
2022/05/02 04:36:41;;;;;;;4.63;3.07;;;17.60;49.30;18.60;101075.00;;;;4988683;28;20669;-49
2022/05/02 04:39:09;;;;;;;3.70;3.10;;;17.60;49.40;18.60;101089.00;;;;4992624;28;20176;-47
2022/05/02 04:41:34;;;;;;;3.03;2.83;;;17.50;49.20;18.60;101080.00;;;;5002150;28;20173;-48
2022/05/02 04:44:00;;;;;;;3.33;3.10;;;17.50;49.30;18.60;101068.00;;;;4996643;28;20197;-47
2022/05/02 04:46:26;;;;;;;4.10;3.23;;;17.50;49.30;18.60;101075.00;;;;4988187;28;20178;-47
2022/05/02 04:48:53;;;;;;;3.30;3.00;;;17.50;49.40;18.60;101073.00;;;;4988637;28;20177;-48
2022/05/02 04:51:18;;;;;;;3.20;2.90;;;17.50;49.50;18.60;101075.00;;;;4988830;28;20160;-47
2022/05/02 04:53:44;;;;;;;3.17;2.90;;;17.50;49.60;18.60;101072.00;;;;4988037;28;20193;-48
2022/05/02 04:56:10;;;;;;;3.43;2.90;;;17.50;49.60;18.60;101077.00;;;;4987971;28;20562;-47
2022/05/02 04:58:36;;;;;;;3.63;3.10;;;17.50;49.70;18.60;101081.00;;;;4988450;28;20257;-47
2022/05/02 05:01:06;;;;;;;3.37;3.07;;;17.50;49.80;18.60;101073.00;;;;4988061;28;20798;-48
2022/05/02 05:03:33;;;;;;;7.20;3.20;;;17.50;49.80;18.60;101076.00;;;;4986842;28;20830;-48
2022/05/02 05:05:58;;;;;;;4.77;2.93;;;17.50;49.80;18.50;101083.00;;;;4987849;28;20739;-47
2022/05/02 05:08:24;;;;;;;3.40;3.10;;;17.50;49.80;18.50;101063.00;;;;4988063;28;20176;-48
2022/05/02 05:11:17;;;;;;;4.03;3.10;;;17.50;49.80;18.50;101077.00;;;;4987923;28;20207;-48
2022/05/02 05:17:57;;;;;;;3.40;3.10;;;17.40;49.80;18.50;101080.00;;;;4986876;28;20215;-48
2022/05/02 05:20:54;;;;;;;3.20;2.90;;;17.40;49.80;18.40;101073.00;;;;4986782;28;20161;-47
2022/05/02 05:24:00;;;;;;;3.00;2.80;;;17.40;49.90;18.40;101085.00;;;;4987572;28;20293;-47
2022/05/02 05:26:51;;;;;;;3.37;3.17;;;17.40;49.90;18.40;101085.00;;;;4987637;28;20153;-48
2022/05/02 05:29:44;;;;;;;3.37;3.00;;;17.40;50.00;18.40;101073.00;;;;4986652;28;20188;-47
2022/05/02 05:32:39;;;;;;;3.20;2.90;;;17.40;50.00;18.40;101079.00;;;;4987710;28;20245;-47
2022/05/02 05:35:06;;;;;;;3.47;3.17;;;17.40;50.00;18.40;101062.00;;;;4986945;28;20354;-47
2022/05/02 05:37:37;;;;;;;3.23;3.03;;;17.30;50.00;18.30;101074.00;;;;4987852;28;20171;-47
2022/05/02 05:40:19;;;;;;;3.30;3.00;;;17.30;50.00;18.30;101081.00;;;;4986553;28;20156;-47
2022/05/02 05:43:23;;;;;;;3.40;3.10;;;17.30;50.00;18.30;101079.00;;;;4988677;28;20536;-48
2022/05/02 05:46:45;;;;;;;3.97;3.40;;;17.30;50.00;18.30;101087.00;;;;4988381;28;20815;-47
2022/05/02 05:49:28;;;;;;;3.53;3.23;;;17.30;50.10;18.30;101077.00;;;;5004912;28;20823;-47
2022/05/02 05:52:05;;;;;;;3.57;3.30;;;17.30;50.10;18.30;101017.00;;;;5004688;28;20658;-47
2022/05/02 05:55:04;;;;;;;4.97;3.33;;;17.30;50.20;18.30;101091.00;;;;4990903;28;20254;-46
2022/05/02 05:58:02;;;;;;;5.17;3.40;;;17.30;50.20;18.30;101082.00;;;;4986988;28;20176;-48
2022/05/02 06:00:30;;;;;;;3.57;3.27;;;17.30;50.20;18.20;101082.00;;;;4987157;28;20192;-48
2022/05/02 06:03:08;;;;;;;3.60;3.30;;;17.30;50.20;18.30;101075.00;;;;4986076;28;20188;-47
2022/05/02 06:05:42;;;;;;;3.80;3.40;;;17.20;50.30;18.30;101086.00;;;;4988762;28;20192;-47
2022/05/02 06:08:09;;;;;;;5.33;3.50;;;17.30;50.30;18.30;101085.00;;;;4988505;28;20177;-47
2022/05/02 06:10:35;;;;;;;3.83;3.30;;;17.30;50.20;18.30;101091.00;;;;4988712;28;20209;-48
2022/05/02 06:13:01;;;;;;;3.80;3.40;;;17.30;50.20;18.30;101094.00;;;;4989937;28;20191;-48
2022/05/02 06:18:29;;;;;;;3.83;3.23;;;17.30;50.40;18.30;101091.00;;;;4993270;28;20206;-48
2022/05/02 06:21:03;;;;;;;3.73;3.30;;;17.30;50.40;18.30;101104.00;;;;5001576;28;20174;-48
2022/05/02 06:23:33;;;;;;;4.50;3.63;;;17.20;50.30;18.30;101091.00;;;;4996506;28;20266;-48
2022/05/02 06:25:58;;;;;;;3.63;3.03;;;17.30;50.30;18.30;101093.00;;;;4990601;28;20664;-48
2022/05/02 06:28:40;;;;;;;4.00;3.10;;;17.20;50.20;18.30;101088.00;;;;4991228;28;20172;-48
2022/05/02 06:31:05;;;;;;;3.40;3.10;;;17.20;50.20;18.30;101092.00;;;;4991216;28;20675;-48
2022/05/02 06:33:31;;;;;;;3.53;3.23;;;17.20;50.20;18.30;101086.00;;;;4989648;28;20196;-48
2022/05/02 06:36:54;;;;;;;4.50;3.00;;;17.30;50.40;18.30;101089.00;;;;4989552;28;20173;-48
2022/05/02 06:39:27;;;;;;;3.93;3.13;;;17.20;50.40;18.30;101088.00;;;;5007344;28;20306;-48
2022/05/02 06:42:37;;;;;;;7.63;3.10;;;17.20;50.40;18.20;101106.00;;;;5005614;28;20184;-49
2022/05/02 06:45:15;;;;;;;5.10;3.40;;;17.20;50.60;18.20;101096.00;;;;4991205;28;20788;-48
2022/05/02 06:48:04;;;;;;;3.77;3.00;;;17.20;50.60;18.20;101084.00;;;;4991916;28;20191;-48
2022/05/02 06:50:32;;;;;;;3.87;3.20;;;17.20;50.80;18.20;101089.00;;;;4989796;28;20555;-49
2022/05/02 06:53:25;;;;;;;5.00;3.10;;;17.20;50.70;18.20;101087.00;;;;4990292;28;20226;-47
2022/05/02 06:56:17;;;;;;;6.17;3.13;;;17.20;50.70;18.20;101089.00;;;;4990555;28;20176;-47
2022/05/02 06:59:26;;;;;;;5.63;3.20;;;17.30;50.80;18.20;101089.00;;;;4988904;28;20171;-48
2022/05/02 07:01:59;;;;;;;4.23;3.40;;;17.30;50.90;18.20;101095.00;;;;5016981;28;20220;-47
2022/05/02 07:04:50;;;;;;;6.03;3.37;;;17.30;51.00;18.20;101102.00;;;;5027210;28;20329;-49
2022/05/02 07:07:27;;;;;;;6.13;3.60;;;17.20;50.90;18.20;101100.00;;;;5029457;28;20156;-47
2022/05/02 07:10:04;;;;;;;7.40;3.20;;;17.30;51.10;18.30;101091.00;;;;5029805;28;20175;-48
2022/05/02 07:12:34;;;;;;;4.93;3.43;;;17.30;51.20;18.30;101102.00;;;;4922462;28;20171;-48
2022/05/02 07:15:12;;;;;;;5.50;3.30;;;17.20;51.00;18.30;101100.00;;;;5007378;28;20196;-48
2022/05/02 07:17:44;;;;;;;3.80;2.97;;;17.30;51.10;18.30;101088.00;;;;5009768;28;20167;-48
2022/05/02 07:20:19;;;;;;;6.73;3.37;;;17.20;51.00;18.30;101094.00;;;;5009786;28;20184;-48
2022/05/02 07:23:30;;;;;;;4.20;3.00;;;17.30;51.70;18.30;101102.00;;;;5009792;28;20640;-47
2022/05/02 07:25:58;;;;;;;5.07;3.40;;;17.20;51.10;18.30;101096.00;;;;5018594;28;20191;-47
2022/05/02 07:28:34;;;;;;;6.07;3.27;;;17.20;51.10;18.30;101090.00;;;;5028621;28;20270;-48
2022/05/02 07:31:00;;;;;;;5.37;3.40;;;17.30;51.20;18.20;101082.00;;;;5028590;28;20248;-48
2022/05/02 07:33:36;;;;;;;3.93;3.20;;;17.20;51.10;18.20;101089.00;;;;5029227;28;20204;-48
2022/05/02 07:36:02;;;;;;;6.50;3.30;;;17.20;51.20;18.20;101088.00;;;;5027161;28;20488;-47
2022/05/02 07:38:33;;;;;;;5.00;3.00;;;17.20;51.20;18.20;101093.00;;;;5028784;28;20233;-47
2022/05/02 07:41:22;;;;;;;7.20;3.20;;;17.30;51.30;18.20;101099.00;;;;5029437;28;20248;-47
2022/05/02 07:43:51;;;;;;;4.93;3.10;;;17.20;51.50;18.20;101090.00;;;;5029074;28;20198;-47
2022/05/02 07:46:25;;;;;;;4.67;3.43;;;17.20;51.30;18.20;101090.00;;;;5011845;28;20655;-47
2022/05/02 07:48:51;;;;;;;3.27;2.73;;;17.20;51.40;18.20;101087.00;;;;5027984;28;20242;-47
2022/05/02 07:51:18;;;;;;;3.77;3.20;;;17.20;51.40;18.20;101081.00;;;;5029326;28;20194;-47
2022/05/02 07:53:44;;;;;;;3.30;3.00;;;17.20;51.40;18.20;101088.00;;;;5011705;28;20192;-47
2022/05/02 07:56:10;;;;;;;4.30;2.87;;;17.20;51.40;18.20;101090.00;;;;5032022;28;20194;-47
2022/05/02 07:58:37;;;;;;;3.33;2.97;;;17.20;51.40;18.20;101077.00;;;;5039844;28;20171;-47
2022/05/02 08:01:03;;;;;;;4.03;2.97;;;17.20;51.40;18.20;101084.00;;;;5031527;28;21046;-47
2022/05/02 08:03:28;;;;;;;3.63;2.90;;;17.20;51.40;18.30;101085.00;;;;5028985;28;20245;-49
2022/05/02 08:05:58;;;;;;;3.43;3.00;;;17.20;51.40;18.30;101066.00;;;;5028685;28;20167;-47
2022/05/02 08:08:40;;;;;;;3.50;3.20;;;17.20;51.40;18.30;101095.00;;;;5011655;28;20175;-48
2022/05/02 08:11:39;;;;;;;3.33;2.93;;;17.20;51.40;18.30;101088.00;;;;5012193;28;20264;-47
2022/05/02 08:14:16;;;;;;;3.60;2.87;;;17.20;51.40;18.30;101080.00;;;;5014804;28;20689;-48
2022/05/02 08:16:57;;;;;;;3.13;2.80;;;17.20;51.40;18.30;101078.00;;;;5028417;28;20170;-47
2022/05/02 08:19:48;;;;;;;4.53;2.83;;;17.20;51.40;18.30;101077.00;;;;5013004;28;20210;-48
2022/05/02 08:28:09;;;;;;;3.23;2.90;;;17.20;51.40;18.20;101080.00;;;;5027437;28;20194;-46
2022/05/02 08:30:43;;;;;;;3.13;2.93;;;17.20;51.40;18.30;101078.00;;;;5027393;28;20198;-47
2022/05/02 08:33:09;;;;;;;2.83;2.60;;;17.20;51.40;18.30;101058.00;;;;5010658;28;20206;-48
2022/05/02 08:35:58;;;;;;;3.00;2.80;;;17.20;51.40;18.30;101074.00;;;;5027279;28;20174;-47
2022/05/02 08:38:32;;;;;;;2.93;2.50;;;17.20;51.50;18.30;101063.00;;;;5028630;28;20187;-49
2022/05/02 08:41:29;;;;;;;2.90;2.67;;;17.20;51.50;18.30;101067.00;;;;5027269;28;20189;-48
2022/05/02 08:44:30;;;;;;;2.97;2.77;;;17.20;51.50;18.30;101061.00;;;;5028358;28;20206;-47
2022/05/02 08:47:24;;;;;;;3.07;2.77;;;17.30;51.70;18.30;101070.00;;;;5028130;28;20835;-47
2022/05/02 08:50:22;;;;;;;2.80;2.60;;;17.20;51.60;18.30;101063.00;;;;5028350;28;20391;-48
2022/05/02 08:53:16;;;;;;;2.90;2.60;;;17.30;51.70;18.30;101046.00;;;;5027353;28;20161;-48
2022/05/02 08:55:48;;;;;;;3.30;2.73;;;17.20;51.60;18.30;101058.00;;;;5027053;28;20167;-48
2022/05/02 08:58:42;;;;;;;2.87;2.60;;;17.20;51.60;18.30;101041.00;;;;5010844;28;20210;-47
2022/05/02 09:01:38;;;;;;;3.27;2.73;;;17.30;51.80;18.30;101046.00;;;;5026745;28;20210;-47
2022/05/02 09:04:28;;;;;;;2.70;2.50;;;17.30;51.80;18.30;101046.00;;;;5026803;28;20198;-47
2022/05/02 09:07:00;;;;;;;3.00;2.80;;;17.30;51.80;18.30;101043.00;;;;5026399;28;20155;-48
2022/05/02 09:09:58;;;;;;;3.20;2.90;;;17.30;51.90;18.40;101041.00;;;;5027647;28;20230;-47
2022/05/02 09:12:35;;;;;;;2.70;2.50;;;17.30;51.90;18.40;101040.00;;;;5026443;28;20175;-47
2022/05/02 09:16:07;;;;;;;2.90;2.70;;;17.40;51.90;18.40;101047.00;;;;5027809;28;20207;-48
2022/05/02 09:18:54;;;;;;;3.37;2.60;;;17.30;52.00;18.40;101037.00;;;;5023354;28;20195;-49
2022/05/02 09:22:01;;;;;;;2.67;2.47;;;17.40;52.10;18.40;101037.00;;;;5036563;28;20167;-48
2022/05/02 09:24:47;;;;;;;2.80;2.60;;;17.40;52.20;18.40;101033.00;;;;5019619;28;20210;-48
2022/05/02 09:28:02;;;;;;;3.97;2.70;;;17.40;52.40;18.40;101031.00;;;;5037193;28;20195;-47
2022/05/02 09:31:02;;;;;;;3.83;2.70;;;17.40;52.40;18.40;101043.00;;;;5034827;28;20202;-47
2022/05/02 09:33:51;;;;;;;3.00;2.70;;;17.50;52.50;18.40;101042.00;;;;5027564;28;20221;-49
2022/05/02 09:36:26;;;;;;;2.80;2.60;;;17.40;52.40;18.50;101030.00;;;;5026238;28;20183;-47
2022/05/02 09:39:20;;;;;;;2.73;2.50;;;17.50;52.50;18.50;101022.00;;;;5027586;28;20173;-47
2022/05/02 09:42:01;;;;;;;2.80;2.60;;;17.40;52.70;18.50;101022.00;;;;5026556;28;20586;-47
2022/05/02 09:51:11;;;;;;;2.70;2.50;;;17.50;53.10;18.50;101016.00;;;;5027050;28;20189;-48
2022/05/02 09:54:05;;;;;;;2.90;2.70;;;17.50;53.30;18.60;101013.00;;;;5027269;28;20192;-48
2022/05/02 09:56:45;;;;;;;2.90;2.70;;;17.50;53.40;18.60;101003.00;;;;5027337;28;20207;-48
2022/05/02 09:59:23;;;;;;;2.97;2.73;;;17.60;53.70;18.60;101012.00;;;;5011975;28;20159;-48
2022/05/02 10:02:01;;;;;;;2.73;2.53;;;17.60;53.70;18.60;101005.00;;;;5027042;28;20203;-48
2022/05/02 10:04:36;;;;;;;2.83;2.63;;;17.60;53.80;18.60;101001.00;;;;5026070;28;20219;-48
2022/05/02 10:07:11;;;;;;;2.87;2.67;;;17.60;54.00;18.70;101006.00;;;;5026918;28;20713;-48
2022/05/02 10:10:02;;;;;;;2.87;2.43;;;17.60;54.10;18.70;100991.00;;;;5027343;28;20198;-48
2022/05/02 10:12:47;;;;;;;2.63;2.43;;;17.60;54.10;18.70;101001.00;;;;4910455;28;20222;-49
2022/05/02 10:15:25;;;;;;;2.70;2.50;;;17.70;54.50;18.70;100989.00;;;;5000257;28;20214;-48
2022/05/02 10:18:11;;;;;;;3.47;2.63;;;17.70;54.70;18.70;100982.00;;;;5005849;28;20648;-47
2022/05/02 10:21:11;;;;;;;2.70;2.50;;;17.70;54.50;18.70;100979.00;;;;4987289;28;20168;-48
2022/05/02 10:23:41;;;;;;;19.50;3.43;;;17.70;54.60;18.60;101000.00;;;;4998829;28;20211;-48
2022/05/02 10:26:31;;;;;;;5.13;2.73;;;17.70;54.10;18.70;101001.00;;;;5006940;28;20190;-47
2022/05/02 10:29:16;;;;;;;4.43;2.73;;;17.80;54.30;18.70;101001.00;;;;5007398;28;20196;-51
2022/05/02 10:31:42;;;;;;;5.20;2.90;;;17.80;54.20;18.70;101003.00;;;;5007113;28;20174;-49
2022/05/02 10:34:08;;;;;;;4.87;2.90;;;17.80;54.50;18.70;100996.00;;;;4990954;28;20196;-45
2022/05/02 10:36:41;;;;;;;5.33;2.73;;;17.80;54.60;18.70;100999.00;;;;4990807;28;20165;-48
2022/05/02 10:39:19;;;;;;;4.00;2.70;;;17.80;54.80;18.70;100998.00;;;;5006873;28;20191;-47
2022/05/02 10:41:56;;;;;;;3.50;2.90;;;17.80;54.70;18.80;100989.00;;;;5008080;28;20650;-47
2022/05/02 10:44:21;;;;;;;4.47;2.70;;;17.80;54.80;18.80;100992.00;;;;5007394;28;20243;-48
2022/05/02 10:46:47;;;;;;;3.43;3.00;;;17.90;55.00;18.80;100972.00;;;;4990501;28;20180;-49
2022/05/02 10:49:39;;;;;;;4.73;2.90;;;17.90;55.00;18.80;101001.00;;;;4994776;28;20447;-48
2022/05/02 10:52:25;;;;;;;4.03;3.00;;;17.90;54.90;18.80;100991.00;;;;5011530;28;20244;-48
2022/05/02 10:54:58;;;;;;;3.30;3.00;;;18.00;54.90;18.80;100983.00;;;;5022652;28;20200;-50
2022/05/02 10:57:54;;;;;;;3.17;2.87;;;17.90;54.80;18.90;100991.00;;;;5017480;28;20160;-48
2022/05/02 11:00:21;;;;;;;4.80;2.73;;;17.90;54.90;18.90;100980.00;;;;5010867;28;20188;-47
2022/05/02 11:03:24;;;;;;;3.50;3.10;;;18.00;54.80;18.90;100986.00;;;;5015229;28;20197;-48
2022/05/02 11:06:13;;;;;;;3.00;2.80;;;18.00;54.90;18.90;100976.00;;;;5016375;28;20203;-47
2022/05/02 11:08:49;;;;;;;4.23;3.23;;;18.00;55.00;18.90;100975.00;;;;5018360;28;20211;-47
2022/05/02 11:11:51;;;;;;;3.57;3.10;;;18.00;55.00;18.90;100982.00;;;;4997327;28;20206;-48
2022/05/02 11:14:51;;;;;;;3.63;3.03;;;18.10;55.10;18.70;100978.00;;;;5030017;28;20274;-47
2022/05/02 11:20:41;;;;;;;3.17;2.87;;;18.10;54.90;19.00;100976.00;;;;5031098;28;20233;-51
2022/05/02 11:21:24;;;;;;;3.10;2.90;;;18.10;54.90;19.00;100965.00;;;;5030701;28;20177;-47
2022/05/02 11:24:24;;;;;;;3.17;2.87;;;18.10;55.10;19.00;100962.00;;;;5029883;28;20248;-47
2022/05/02 11:27:31;;;;;;;3.43;2.80;;;18.20;55.30;19.00;100960.00;;;;5016890;28;20291;-47
2022/05/02 11:30:07;;;;;;;3.43;2.90;;;18.20;55.60;19.00;100957.00;;;;5011506;28;20183;-48
2022/05/02 11:32:58;;;;;;;3.47;3.17;;;18.20;55.60;19.10;100963.00;;;;5006195;28;20191;-47
2022/05/02 11:35:28;;;;;;;4.63;3.07;;;18.30;55.30;19.10;100954.00;;;;4999432;28;20704;-47
2022/05/02 11:38:30;;;;;;;3.50;3.17;;;18.30;55.50;19.20;100957.00;;;;4991090;28;20226;-48
2022/05/02 11:41:22;;;;;;;4.03;2.87;;;18.40;56.60;19.20;100956.00;;;;4990560;28;20552;-48
2022/05/02 11:43:48;;;;;;;6.07;3.30;;;18.40;56.10;19.20;100957.00;;;;4991013;28;20236;-47
2022/05/02 11:46:24;;;;;;;7.37;3.30;;;18.40;56.00;19.30;100952.00;;;;4991259;28;20201;-49